Enter the Airport ICAO Code

Search by Airport or City

Current Weather

SAVC | General Enrique Mosconi International Airport

Comodoro Rivadavia, Chubut, Argentina

Last Update 37 Minutes Ago

Clear Sky

Temperature of 10 ºC

Strong Winds from West with Gusts

Temperature

10 ºC

Dew Point Temperature

02 ºC Below Zero

Relative Humidity

43.05 %

Wind Direction

West (290º, Ranging from 250º to 330º)

Wind Velocity

44 km/h (24 kt)

Gusts

70 km/h (38 kt)

Visibility

No Significant Reductions

Sea Level Pressure

0998 hPa (Hectopascals)

Layers of Clouds

None

METAR SAVC 121400Z 29024G38KT 250V330 CAVOK 10/M02 Q0998

Weather Forecast

SAVC | General Enrique Mosconi International Airport

Comodoro Rivadavia, Chubut, Argentina

Forecast valid for the next 21 Hours

In the next hour it is expected the begining of:

Completely Cloudy Sky

Moderate Winds from West with Gusts

In 3 to 5 hours it is expected the begining of:

Light Rain

In 10 to 12 hours it is expected the begining of:

Mist

Light to Moderate Winds from Variable Directions

Maximum Temperature

11 ºC in 3 Hours

Minimum Temperature

02 ºC in 21 Hours

TAF SAVC 121100Z 1212/1312 27020G30KT CAVOK TX11/1218Z TN02/1312Z BECMG 1214/1216 25015G25KT 9999 SCT030 OVC090 BECMG 1218/1220 -RA BKN025 OVC050 BECMG 1301/1303 VRB05KT -DZBR BKN015 PROB30 TEMPO 1306/1312 5000 DZBR